createdAt,value
2024-01-03T00:00:20.178Z,99210.59
2024-01-03T00:02:48.853Z,99204.88
2024-01-03T00:05:20.602Z,99208.06
2024-01-03T00:07:49.586Z,99196.47
2024-01-03T00:10:35.530Z,99200.38
2024-01-03T00:13:06.619Z,99193.41
2024-01-03T00:16:20.634Z,99200.78
2024-01-03T00:18:51.537Z,99198.13
2024-01-03T00:21:24.302Z,99192.81
2024-01-03T00:23:54.562Z,99183.59
2024-01-03T00:26:25.204Z,99182.75
2024-01-03T00:28:53.719Z,99181.91
2024-01-03T00:31:37.249Z,99187.78
2024-01-03T00:34:07.561Z,99192.66
2024-01-03T00:36:35.969Z,99203.69
2024-01-03T00:39:04.359Z,99206.09
2024-01-03T00:41:33.821Z,99212.41
2024-01-03T00:44:02.191Z,99222.03
2024-01-03T00:46:30.560Z,99229.56
2024-01-03T00:48:58.669Z,99227.06
2024-01-03T00:51:27.043Z,99226.09
2024-01-03T00:53:55.541Z,99232.50
2024-01-03T00:56:24.045Z,99236.97
2024-01-03T00:58:53.791Z,99223.00
2024-01-03T01:01:22.360Z,99224.25
2024-01-03T01:03:51.294Z,99207.19
2024-01-03T01:06:19.555Z,99196.03
2024-01-03T01:08:47.693Z,99200.63
2024-01-03T01:11:15.731Z,99200.34
2024-01-03T01:13:43.687Z,99199.34
2024-01-03T01:16:13.153Z,99197.97
2024-01-03T01:18:41.548Z,99205.41
2024-01-03T01:21:09.609Z,99224.25
2024-01-03T01:23:39.728Z,99224.41
2024-01-03T01:26:08.038Z,99213.63
2024-01-03T01:28:36.379Z,99204.66
2024-01-03T01:31:04.867Z,99200.88
2024-01-03T01:33:34.393Z,99203.25
2024-01-03T01:36:02.906Z,99201.75
2024-01-03T01:38:31.060Z,99183.13
2024-01-03T01:40:59.158Z,99194.41
2024-01-03T01:43:27.388Z,99183.78
2024-01-03T01:45:55.788Z,99185.19
2024-01-03T01:48:24.232Z,99178.72
2024-01-03T01:50:54.696Z,99169.81
2024-01-03T01:53:22.933Z,99180.84
2024-01-03T01:55:51.644Z,99173.72
2024-01-03T01:58:23.400Z,99173.00
2024-01-03T02:00:51.713Z,99164.34
2024-01-03T02:03:20.048Z,99166.91
2024-01-03T02:05:48.654Z,99177.53
2024-01-03T02:08:18.609Z,99173.72
2024-01-03T02:10:46.848Z,99167.13
2024-01-03T02:13:14.843Z,99169.53
2024-01-03T02:15:42.928Z,99158.47
2024-01-03T02:18:12.344Z,99147.28
2024-01-03T02:20:41.909Z,99146.03
2024-01-03T02:23:11.437Z,99157.22
2024-01-03T02:25:39.714Z,99159.03
2024-01-03T02:28:11.196Z,99138.38
2024-01-03T02:30:42.583Z,99131.34
2024-01-03T02:33:11.047Z,99126.72
2024-01-03T02:35:39.317Z,99127.66
2024-01-03T02:38:07.693Z,99114.22
2024-01-03T02:40:37.447Z,99104.91
2024-01-03T02:43:05.756Z,99091.19
2024-01-03T02:45:34.061Z,99105.56
2024-01-03T02:48:04.085Z,99098.59
2024-01-03T02:50:32.285Z,99098.75
2024-01-03T02:53:02.310Z,99114.84
2024-01-03T02:55:30.686Z,99073.59
2024-01-03T02:58:00.278Z,99090.16
2024-01-03T03:00:28.556Z,99086.47
2024-01-03T03:02:56.878Z,99085.31
2024-01-03T03:05:25.210Z,99079.19
2024-01-03T03:07:53.314Z,99058.47
2024-01-03T03:10:21.587Z,99080.16
2024-01-03T03:12:49.906Z,99093.59
2024-01-03T03:15:19.509Z,99097.91
2024-01-03T03:17:47.687Z,99099.22
2024-01-03T03:20:16.032Z,99098.50
2024-01-03T03:22:44.007Z,99110.22
2024-01-03T03:25:12.048Z,99110.19
2024-01-03T03:27:40.267Z,99103.03
2024-01-03T03:30:09.593Z,99101.53
2024-01-03T03:32:39.441Z,99093.69
2024-01-03T03:35:08.242Z,99101.94
2024-01-03T03:37:36.428Z,99101.38
2024-01-03T03:40:04.483Z,99099.59
2024-01-03T03:42:32.594Z,99095.06
2024-01-03T03:45:00.912Z,99104.47
2024-01-03T03:47:29.407Z,99098.19
2024-01-03T03:49:59.228Z,99099.31
2024-01-03T03:52:27.449Z,99102.34
2024-01-03T03:54:55.716Z,99106.00
2024-01-03T03:57:24.024Z,99098.88
2024-01-03T03:59:52.463Z,99091.47
2024-01-03T04:02:20.729Z,99109.25
2024-01-03T04:04:49.117Z,99116.19
2024-01-03T04:07:18.830Z,99119.78
2024-01-03T04:09:46.810Z,99121.56
2024-01-03T04:12:15.141Z,99129.78
2024-01-03T04:14:43.467Z,99126.28
2024-01-03T04:17:11.728Z,99134.53
2024-01-03T04:19:40.546Z,99126.75
2024-01-03T04:22:08.820Z,99129.69
2024-01-03T04:24:38.090Z,99129.53
2024-01-03T04:27:06.675Z,99129.69
2024-01-03T04:29:34.770Z,99126.56
2024-01-03T04:32:03.071Z,99126.09
2024-01-03T04:34:31.404Z,99130.72
2024-01-03T04:36:59.795Z,99121.72
2024-01-03T04:39:28.034Z,99122.16
2024-01-03T04:41:57.726Z,99118.81
2024-01-03T04:44:26.075Z,99113.88
2024-01-03T04:46:54.298Z,99103.44
2024-01-03T04:49:22.821Z,99108.72
2024-01-03T04:51:51.178Z,99101.16
2024-01-03T04:54:19.451Z,99106.94
2024-01-03T04:56:48.646Z,99103.81
2024-01-03T04:59:18.375Z,99103.66
2024-01-03T05:01:46.683Z,99088.50
2024-01-03T05:04:15.184Z,99081.38
2024-01-03T05:06:43.814Z,99083.72
2024-01-03T05:09:12.125Z,99078.78
2024-01-03T05:11:40.472Z,99094.34
2024-01-03T05:14:08.691Z,99105.66
2024-01-03T05:16:38.190Z,99097.97
2024-01-03T05:19:06.606Z,99114.63
2024-01-03T05:21:35.017Z,99110.31
2024-01-03T05:24:03.188Z,99121.78
2024-01-03T05:26:31.568Z,99101.47
2024-01-03T05:28:59.645Z,99092.41
2024-01-03T05:31:27.957Z,99098.66
2024-01-03T05:33:57.725Z,99100.78
2024-01-03T05:36:25.880Z,99092.66
2024-01-03T05:38:53.947Z,99097.84
2024-01-03T05:41:22.373Z,99092.81
2024-01-03T05:43:50.659Z,99104.66
2024-01-03T05:46:18.649Z,99094.88
2024-01-03T05:48:46.834Z,99101.16
2024-01-03T05:51:17.429Z,99111.13
2024-01-03T05:53:49.018Z,99101.94
2024-01-03T05:56:17.717Z,99105.81
2024-01-03T05:58:46.171Z,99113.09
2024-01-03T06:01:14.607Z,99111.81
2024-01-03T06:03:43.076Z,99115.84
2024-01-03T06:06:11.717Z,99115.69
2024-01-03T06:08:41.409Z,99118.13
2024-01-03T06:11:10.403Z,99118.50
2024-01-03T06:13:38.410Z,99121.31
2024-01-03T06:16:07.476Z,99121.56
2024-01-03T06:18:35.979Z,99130.53
2024-01-03T06:21:04.541Z,99127.97
2024-01-03T06:23:32.961Z,99135.69
2024-01-03T06:26:02.662Z,99134.59
2024-01-03T06:28:30.715Z,99139.47
2024-01-03T06:30:58.828Z,99128.72
2024-01-03T06:33:27.082Z,99134.28
2024-01-03T06:35:56.091Z,99137.22
2024-01-03T06:38:24.202Z,99131.50
2024-01-03T06:40:52.381Z,99136.81
2024-01-03T06:43:22.126Z,99134.28
2024-01-03T06:45:50.501Z,99135.25
2024-01-03T06:48:19.327Z,99125.59
2024-01-03T06:50:47.954Z,99126.88
2024-01-03T06:53:16.561Z,99132.50
2024-01-03T06:55:44.859Z,99132.72
2024-01-03T06:58:13.037Z,99136.97
2024-01-03T07:00:42.702Z,99130.06
2024-01-03T07:03:11.087Z,99130.63
2024-01-03T07:05:41.168Z,99130.63
2024-01-03T07:08:09.894Z,99132.19
2024-01-03T07:10:38.558Z,99132.56
2024-01-03T07:13:06.882Z,99137.31
2024-01-03T07:15:35.152Z,99134.47
2024-01-03T07:18:05.037Z,99137.81
2024-01-03T07:20:33.388Z,99141.44
2024-01-03T07:23:01.837Z,99144.06
2024-01-03T07:25:30.188Z,99143.81
2024-01-03T07:27:59.860Z,99141.28
2024-01-03T07:30:29.374Z,99136.63
2024-01-03T07:32:59.387Z,99142.31
2024-01-03T07:35:28.983Z,99150.19
2024-01-03T07:37:57.130Z,99144.88
2024-01-03T07:40:25.569Z,99144.25
2024-01-03T07:42:53.816Z,99145.34
2024-01-03T07:45:22.697Z,99142.38
2024-01-03T07:47:51.232Z,99140.56
2024-01-03T07:50:20.301Z,99141.28
2024-01-03T07:52:49.786Z,99144.44
2024-01-03T07:55:18.096Z,99142.53
2024-01-03T07:57:46.354Z,99136.66
2024-01-03T08:00:15.583Z,99140.56
2024-01-03T08:02:43.986Z,99133.47
2024-01-03T08:05:12.410Z,99131.34
2024-01-03T08:07:40.424Z,99135.25
2024-01-03T08:10:11.877Z,99130.75
2024-01-03T08:12:40.292Z,99121.94
2024-01-03T08:15:09.330Z,99128.72
2024-01-03T08:17:37.839Z,99137.25
2024-01-03T08:20:07.154Z,99142.59
2024-01-03T08:22:35.885Z,99148.00
2024-01-03T08:25:04.081Z,99150.22
2024-01-03T08:27:33.629Z,99162.22
2024-01-03T08:30:01.984Z,99153.56
2024-01-03T08:32:30.249Z,99151.81
2024-01-03T08:34:58.293Z,99157.72
2024-01-03T08:37:26.567Z,99169.59
2024-01-03T08:39:54.843Z,99158.72
2024-01-03T08:42:25.057Z,99168.31
2024-01-03T08:44:54.817Z,99154.78
2024-01-03T08:47:23.472Z,99166.94
2024-01-03T08:49:52.003Z,99172.63
2024-01-03T08:52:20.635Z,99180.34
2024-01-03T08:54:49.139Z,99173.41
2024-01-03T08:57:17.441Z,99162.78
2024-01-03T08:59:45.758Z,99165.88
2024-01-03T09:02:15.494Z,99169.38
2024-01-03T09:04:43.813Z,99187.41
2024-01-03T09:07:12.192Z,99192.72
2024-01-03T09:09:41.955Z,99179.72
2024-01-03T09:12:10.037Z,99183.22
2024-01-03T09:14:38.080Z,99190.00
2024-01-03T09:17:06.399Z,99193.78
2024-01-03T09:19:36.151Z,99185.66
2024-01-03T09:22:04.370Z,99188.69
2024-01-03T09:24:32.378Z,99189.66
2024-01-03T09:27:02.077Z,99181.69
2024-01-03T09:29:30.843Z,99184.19
2024-01-03T09:32:00.078Z,99182.81
2024-01-03T09:34:28.518Z,99182.91
2024-01-03T09:36:58.003Z,99175.06
2024-01-03T09:39:26.039Z,99176.97
2024-01-03T09:41:54.637Z,99188.44
2024-01-03T09:44:23.406Z,99186.78
2024-01-03T09:46:51.745Z,99185.47
2024-01-03T09:49:20.824Z,99187.50
2024-01-03T09:51:49.828Z,99185.53
2024-01-03T09:54:20.443Z,99194.69
2024-01-03T09:56:49.709Z,99190.53
2024-01-03T09:59:19.143Z,99194.38
2024-01-03T10:01:59.655Z,99192.56
2024-01-03T10:04:28.331Z,99195.75
2024-01-03T10:06:59.022Z,99194.06
2024-01-03T10:09:42.380Z,99197.41
2024-01-03T10:12:19.410Z,99190.16
2024-01-03T10:14:48.050Z,99188.81
2024-01-03T10:17:16.114Z,99205.44
2024-01-03T10:19:44.750Z,99201.81
2024-01-03T10:22:13.123Z,99197.97
2024-01-03T10:24:47.141Z,99209.69
2024-01-03T10:27:15.762Z,99199.03
2024-01-03T10:29:43.876Z,99198.22
2024-01-03T10:32:16.802Z,99195.38
2024-01-03T10:34:45.199Z,99195.56
2024-01-03T10:37:14.087Z,99192.88
2024-01-03T10:39:45.061Z,99186.53
2024-01-03T10:42:14.866Z,99189.38
2024-01-03T10:44:45.520Z,99192.03
2024-01-03T10:47:13.900Z,99183.19
2024-01-03T10:49:45.952Z,99185.56
2024-01-03T10:52:15.201Z,99181.06
2024-01-03T10:54:48.649Z,99169.41
2024-01-03T10:57:24.942Z,99170.38
2024-01-03T11:00:03.581Z,99179.91
2024-01-03T11:02:38.198Z,99166.75
2024-01-03T11:05:16.598Z,99166.94
2024-01-03T11:07:51.558Z,99154.75
2024-01-03T11:10:50.300Z,99159.72
2024-01-03T11:13:30.656Z,99155.94
2024-01-03T11:15:59.630Z,99163.75
2024-01-03T11:18:54.203Z,99155.44
2024-01-03T11:21:45.595Z,99157.94
2024-01-03T11:24:47.694Z,99160.31
2024-01-03T11:27:24.269Z,99152.00
2024-01-03T11:29:56.738Z,99149.50
2024-01-03T11:32:39.791Z,99151.16
2024-01-03T11:35:12.635Z,99149.31
2024-01-03T11:37:41.060Z,99143.66
2024-01-03T11:40:20.432Z,99136.50
2024-01-03T11:42:49.347Z,99135.22
2024-01-03T11:45:21.259Z,99135.38
2024-01-03T11:47:50.970Z,99138.69
2024-01-03T11:50:19.419Z,99139.38
2024-01-03T11:52:50.289Z,99136.03
2024-01-03T11:55:20.963Z,99122.25
2024-01-03T11:57:50.826Z,99120.59
2024-01-03T12:00:22.899Z,99117.59
2024-01-03T12:02:52.784Z,99114.59
2024-01-03T12:05:22.729Z,99106.13
2024-01-03T12:07:53.071Z,99108.47
2024-01-03T12:10:22.494Z,99111.81
2024-01-03T12:12:53.105Z,99108.13
2024-01-03T12:18:06.209Z,99100.50
2024-01-03T12:20:35.297Z,99114.34
2024-01-03T12:23:11.836Z,99118.22
2024-01-03T12:25:41.064Z,99115.53
2024-01-03T12:28:09.919Z,99108.84
2024-01-03T12:30:39.730Z,99118.50
2024-01-03T12:33:10.746Z,99117.91
2024-01-03T12:35:39.308Z,99111.56
2024-01-03T12:38:07.726Z,99111.91
2024-01-03T12:40:35.892Z,99113.56
2024-01-03T12:43:04.596Z,99096.56
2024-01-03T12:45:32.892Z,99108.22
2024-01-03T12:48:02.564Z,99105.53
2024-01-03T12:50:31.046Z,99109.06
2024-01-03T12:52:59.111Z,99107.53
2024-01-03T12:55:27.202Z,99101.53
2024-01-03T12:57:55.184Z,99106.88
2024-01-03T13:00:23.516Z,99102.50
2024-01-03T13:02:51.814Z,99106.19
2024-01-03T13:05:22.169Z,99114.19
2024-01-03T13:07:50.526Z,99117.84
2024-01-03T13:10:18.751Z,99116.00
2024-01-03T13:12:46.801Z,99126.00
2024-01-03T13:15:15.356Z,99124.19
2024-01-03T13:17:44.039Z,99140.03
2024-01-03T13:20:14.569Z,99130.19
2024-01-03T13:22:45.578Z,99132.19
2024-01-03T13:25:13.711Z,99134.00
2024-01-03T13:27:44.436Z,99134.84
2024-01-03T13:30:14.186Z,99135.84
2024-01-03T13:32:43.404Z,99142.84
2024-01-03T13:35:11.594Z,99145.53
2024-01-03T13:37:39.674Z,99142.19
2024-01-03T13:40:10.288Z,99129.00
2024-01-03T13:42:38.349Z,99125.31
2024-01-03T13:45:07.841Z,99121.16
2024-01-03T13:47:36.084Z,99130.16
2024-01-03T13:50:04.587Z,99126.66
2024-01-03T13:52:32.744Z,99121.34
2024-01-03T13:55:02.274Z,99128.16
2024-01-03T13:57:31.920Z,99126.34
2024-01-03T14:00:01.575Z,99128.16
2024-01-03T14:02:29.979Z,99133.66
2024-01-03T14:04:58.082Z,99130.00
2024-01-03T14:07:26.448Z,99130.00
2024-01-03T14:09:54.931Z,99130.00
2024-01-03T14:12:24.507Z,99128.34
2024-01-03T14:14:54.273Z,99122.66
2024-01-03T14:17:22.683Z,99132.53
2024-01-03T14:19:50.830Z,99133.34
2024-01-03T14:22:20.106Z,99148.53
2024-01-03T14:24:48.393Z,99140.53
2024-01-03T14:27:16.540Z,99145.00
2024-01-03T14:29:46.035Z,99143.31
2024-01-03T14:32:15.704Z,99154.00
2024-01-03T14:34:44.198Z,99155.69
2024-01-03T14:37:12.916Z,99160.00
2024-01-03T14:39:41.730Z,99166.34
2024-01-03T14:42:12.379Z,99166.34
2024-01-03T14:44:41.215Z,99170.00
2024-01-03T14:47:10.239Z,99162.69
2024-01-03T14:49:39.988Z,99158.19
2024-01-03T14:52:09.199Z,99158.19
2024-01-03T14:54:38.849Z,99158.34
2024-01-03T14:57:09.044Z,99160.19
2024-01-03T14:59:39.778Z,99158.69
2024-01-03T15:02:09.412Z,99152.50
2024-01-03T15:04:38.957Z,99157.50
2024-01-03T15:07:07.067Z,99160.69
2024-01-03T15:09:35.272Z,99159.31
2024-01-03T15:12:03.572Z,99160.69
2024-01-03T15:14:34.366Z,99157.16
2024-01-03T15:17:02.583Z,99158.69
2024-01-03T15:19:30.970Z,99156.03
2024-01-03T15:22:07.657Z,99162.16
2024-01-03T15:24:36.849Z,99161.19
2024-01-03T15:27:05.820Z,99148.19
2024-01-03T15:29:35.392Z,99152.84
2024-01-03T15:32:03.931Z,99154.38
2024-01-03T15:34:32.333Z,99150.69
2024-01-03T15:37:01.214Z,99154.22
2024-01-03T15:39:30.873Z,99146.22
2024-01-03T15:41:58.994Z,99151.53
2024-01-03T15:44:27.405Z,99147.03
2024-01-03T15:46:55.721Z,99143.38
2024-01-03T15:49:26.227Z,99155.88
2024-01-03T15:51:58.548Z,99149.69
2024-01-03T15:54:36.893Z,99157.56
2024-01-03T15:57:14.467Z,99158.69
2024-01-03T15:59:42.740Z,99155.19
2024-01-03T16:02:11.092Z,99142.00
2024-01-03T16:04:39.495Z,99144.69
2024-01-03T16:07:07.655Z,99136.00
2024-01-03T16:09:36.748Z,99132.19
2024-01-03T16:12:06.545Z,99128.34
2024-01-03T16:14:37.890Z,99120.84
2024-01-03T16:17:06.473Z,99123.66
2024-01-03T16:19:35.277Z,99127.19
2024-01-03T16:22:03.832Z,99137.00
2024-01-03T16:24:32.054Z,99132.34
2024-01-03T16:27:06.124Z,99135.84
2024-01-03T16:29:36.773Z,99122.50
2024-01-03T16:32:07.050Z,99124.00
2024-01-03T16:34:35.761Z,99113.50
2024-01-03T16:37:08.108Z,99121.69
2024-01-03T16:39:37.261Z,99127.03
2024-01-03T16:42:06.366Z,99119.00
2024-01-03T16:44:35.955Z,99127.53
2024-01-03T16:47:04.195Z,99120.75
2024-01-03T16:49:32.577Z,99124.19
2024-01-03T16:52:00.839Z,99124.69
2024-01-03T16:54:29.374Z,99129.56
2024-01-03T16:56:57.725Z,99123.66
2024-01-03T16:59:26.021Z,99126.16
2024-01-03T17:01:55.801Z,99114.81
2024-01-03T17:04:24.256Z,99100.63
2024-01-03T17:06:52.352Z,99114.81
2024-01-03T17:09:20.870Z,99117.66
2024-01-03T17:11:49.528Z,99128.34
2024-01-03T17:14:17.835Z,99137.00
2024-01-03T17:16:47.639Z,99139.69
2024-01-03T17:19:18.266Z,99121.16
2024-01-03T17:21:46.681Z,99126.84
2024-01-03T17:24:14.759Z,99115.84
2024-01-03T17:26:44.364Z,99114.31
2024-01-03T17:29:14.313Z,99112.47
2024-01-03T17:31:42.975Z,99113.34
2024-01-03T17:34:11.553Z,99108.81
2024-01-03T17:36:42.144Z,99114.16
2024-01-03T17:39:11.423Z,99119.66
2024-01-03T17:41:42.697Z,99127.66
2024-01-03T17:44:10.779Z,99119.19
2024-01-03T17:46:39.265Z,99121.69
2024-01-03T17:49:07.791Z,99127.66
2024-01-03T17:51:39.054Z,99145.66
2024-01-03T17:54:08.620Z,99158.00
2024-01-03T17:56:36.847Z,99175.50
2024-01-03T17:59:10.264Z,99167.03
2024-01-03T18:01:39.789Z,99155.53
2024-01-03T18:04:10.298Z,99128.00
2024-01-03T18:06:38.444Z,99106.66
2024-01-03T18:09:10.896Z,99098.66
2024-01-03T18:11:39.258Z,99103.00
2024-01-03T18:14:07.572Z,99104.81
2024-01-03T18:16:36.767Z,99100.34
2024-01-03T18:19:05.159Z,99100.34
2024-01-03T18:21:33.402Z,99092.34
2024-01-03T18:24:08.265Z,99123.19
2024-01-03T18:26:38.325Z,99098.47
2024-01-03T18:29:06.815Z,99116.34
2024-01-03T18:31:35.041Z,99120.50
2024-01-03T18:34:03.436Z,99114.88
2024-01-03T18:36:31.647Z,99113.34
2024-01-03T18:38:59.764Z,99112.34
2024-01-03T18:41:27.886Z,99116.69
2024-01-03T18:43:57.572Z,99122.56
2024-01-03T18:46:25.696Z,99119.53
2024-01-03T18:48:54.505Z,99114.34
2024-01-03T18:51:23.871Z,99104.31
2024-01-03T18:53:52.587Z,99090.97
2024-01-03T18:56:20.806Z,99094.16
2024-01-03T18:58:49.173Z,99114.34
2024-01-03T19:01:19.600Z,99117.50
2024-01-03T19:03:48.244Z,99109.84
2024-01-03T19:06:16.754Z,99103.31
2024-01-03T19:08:45.723Z,99094.31
2024-01-03T19:11:14.109Z,99108.81
2024-01-03T19:13:42.369Z,99105.16
2024-01-03T19:16:10.974Z,99103.63
2024-01-03T19:18:40.588Z,99105.50
2024-01-03T19:21:08.912Z,99094.50
2024-01-03T19:23:37.644Z,99084.16
2024-01-03T19:26:07.691Z,99105.47
2024-01-03T19:28:36.286Z,99106.97
2024-01-03T19:31:05.249Z,99110.00
2024-01-03T19:33:33.809Z,99148.31
2024-01-03T19:36:04.971Z,99139.28
2024-01-03T19:38:33.894Z,99151.81
2024-01-03T19:41:02.613Z,99151.94
2024-01-03T19:43:31.168Z,99154.59
2024-01-03T19:46:00.352Z,99150.97
2024-01-03T19:48:29.511Z,99160.84
2024-01-03T19:50:58.401Z,99147.34
2024-01-03T19:53:28.014Z,99132.13
2024-01-03T19:55:57.349Z,99123.66
2024-01-03T19:58:26.792Z,99113.84
2024-01-03T20:00:54.875Z,99087.50
2024-01-03T20:03:23.089Z,99085.50
2024-01-03T20:05:51.263Z,99096.19
2024-01-03T20:08:19.829Z,99111.34
2024-01-03T20:10:49.324Z,99104.88
2024-01-03T20:13:18.530Z,99110.41
2024-01-03T20:15:46.941Z,99108.72
2024-01-03T20:18:15.444Z,99103.09
2024-01-03T20:20:45.157Z,99096.41
2024-01-03T20:23:14.415Z,99094.06
2024-01-03T20:25:42.509Z,99078.19
2024-01-03T20:28:12.645Z,99077.00
2024-01-03T20:30:41.013Z,99083.81
2024-01-03T20:33:09.565Z,99081.00
2024-01-03T20:35:37.667Z,99074.34
2024-01-03T20:38:06.127Z,99071.31
2024-01-03T20:40:34.127Z,99061.13
2024-01-03T20:43:03.656Z,99065.47
2024-01-03T20:45:34.915Z,99062.97
2024-01-03T20:48:03.307Z,99061.97
2024-01-03T20:50:34.359Z,99055.19
2024-01-03T20:53:02.595Z,99046.81
2024-01-03T20:55:30.697Z,99053.13
2024-01-03T20:57:59.239Z,99049.94
2024-01-03T21:00:27.379Z,99048.28
2024-01-03T21:02:56.913Z,99049.31
2024-01-03T21:05:25.359Z,99042.94
2024-01-03T21:07:53.737Z,99027.63
2024-01-03T21:10:22.086Z,99053.78
2024-01-03T21:12:50.182Z,99033.81
2024-01-03T21:15:18.344Z,99028.78
2024-01-03T21:17:46.614Z,99036.59
2024-01-03T21:20:16.470Z,99032.91
2024-01-03T21:22:44.549Z,99044.94
2024-01-03T21:25:12.687Z,99036.59
2024-01-03T21:27:46.997Z,99027.06
2024-01-03T21:30:20.555Z,99032.06
2024-01-03T21:32:49.857Z,99035.72
2024-01-03T21:35:19.673Z,99028.09
2024-01-03T21:37:47.944Z,99017.75
2024-01-03T21:40:16.585Z,99016.91
2024-01-03T21:42:44.572Z,99025.72
2024-01-03T21:45:12.695Z,99033.88
2024-01-03T21:47:42.297Z,99034.56
2024-01-03T21:50:11.823Z,99045.75
2024-01-03T21:52:47.261Z,99041.38
2024-01-03T21:55:16.012Z,99032.69
2024-01-03T21:57:44.016Z,99038.03
2024-01-03T22:00:14.358Z,99043.19
2024-01-03T22:02:42.777Z,99055.22
2024-01-03T22:05:14.148Z,99048.69
2024-01-03T22:07:44.257Z,99047.50
2024-01-03T22:10:14.003Z,99053.22
2024-01-03T22:12:46.494Z,99057.38
2024-01-03T22:15:15.379Z,99049.38
2024-01-03T22:17:43.931Z,99048.19
2024-01-03T22:20:12.502Z,99050.84
2024-01-03T22:22:41.071Z,99064.19
2024-01-03T22:25:11.093Z,99052.38
2024-01-03T22:27:39.952Z,99054.53
2024-01-03T22:30:09.351Z,99044.56
2024-01-03T22:32:37.840Z,99043.72
2024-01-03T22:35:06.478Z,99037.22
2024-01-03T22:37:35.382Z,99030.19
2024-01-03T22:40:05.311Z,99030.38
2024-01-03T22:42:36.848Z,99042.56
2024-01-03T22:45:07.088Z,99025.88
2024-01-03T22:47:35.640Z,99030.03
2024-01-03T22:50:04.108Z,99030.53
2024-01-03T22:52:32.664Z,99026.22
2024-01-03T22:55:02.816Z,99031.56
2024-01-03T22:57:31.262Z,99031.38
2024-01-03T23:00:01.001Z,99040.53
2024-01-03T23:02:29.373Z,99028.72
2024-01-03T23:04:57.554Z,99025.03
2024-01-03T23:07:25.617Z,99019.06
2024-01-03T23:09:53.903Z,99025.88
2024-01-03T23:12:22.542Z,99027.53
2024-01-03T23:14:50.853Z,99023.03
2024-01-03T23:17:21.413Z,99019.53
2024-01-03T23:19:49.958Z,99008.00
2024-01-03T23:22:18.252Z,99002.19
2024-01-03T23:24:46.570Z,99000.19
2024-01-03T23:27:15.012Z,98992.34
2024-01-03T23:29:43.050Z,98990.34
2024-01-03T23:32:11.310Z,98990.88
2024-01-03T23:34:40.955Z,98987.19
2024-01-03T23:37:09.314Z,98990.19
2024-01-03T23:39:37.768Z,98992.84
2024-01-03T23:42:06.173Z,98996.00
2024-01-03T23:44:34.494Z,98989.34
2024-01-03T23:47:02.825Z,98989.34
2024-01-03T23:49:31.118Z,98983.84
2024-01-03T23:52:00.517Z,98973.97
2024-01-03T23:54:28.814Z,98969.31
2024-01-03T23:56:57.363Z,98964.16
2024-01-03T23:59:25.366Z,98963.69
